sensor_id;sensor_type;location;lat;lon;timestamp;temperature;humidity
26304;DHT22;57113;48.680;8.890;2022-10-15T00:01:35;17.00;99.90
26304;DHT22;57113;48.680;8.890;2022-10-15T00:04:01;17.10;99.90
26304;DHT22;57113;48.680;8.890;2022-10-15T00:06:27;17.00;99.90
26304;DHT22;57113;48.680;8.890;2022-10-15T00:08:52;17.00;99.90
26304;DHT22;57113;48.680;8.890;2022-10-15T00:11:19;17.00;99.90
26304;DHT22;57113;48.680;8.890;2022-10-15T00:13:45;17.00;99.90
26304;DHT22;57113;48.680;8.890;2022-10-15T00:16:13;17.00;99.90
26304;DHT22;57113;48.680;8.890;2022-10-15T00:18:39;17.00;99.90
26304;DHT22;57113;48.680;8.890;2022-10-15T00:21:05;17.00;99.90
26304;DHT22;57113;48.680;8.890;2022-10-15T00:23:31;17.00;99.90
26304;DHT22;57113;48.680;8.890;2022-10-15T00:26:04;17.00;99.90
26304;DHT22;57113;48.680;8.890;2022-10-15T00:28:30;17.00;99.90
26304;DHT22;57113;48.680;8.890;2022-10-15T00:30:59;17.10;99.90
26304;DHT22;57113;48.680;8.890;2022-10-15T00:33:25;17.10;99.90
26304;DHT22;57113;48.680;8.890;2022-10-15T00:35:57;17.00;99.90
26304;DHT22;57113;48.680;8.890;2022-10-15T00:38:23;17.00;99.90
26304;DHT22;57113;48.680;8.890;2022-10-15T00:40:48;17.00;99.90
26304;DHT22;57113;48.680;8.890;2022-10-15T00:43:14;17.00;99.90
26304;DHT22;57113;48.680;8.890;2022-10-15T00:45:39;17.00;99.90
26304;DHT22;57113;48.680;8.890;2022-10-15T00:48:05;17.00;99.90
26304;DHT22;57113;48.680;8.890;2022-10-15T00:50:32;17.00;99.90
26304;DHT22;57113;48.680;8.890;2022-10-15T00:53:02;17.00;99.90
26304;DHT22;57113;48.680;8.890;2022-10-15T00:55:29;17.00;99.90
26304;DHT22;57113;48.680;8.890;2022-10-15T00:57:57;17.00;99.90
26304;DHT22;57113;48.680;8.890;2022-10-15T01:00:23;17.00;99.90
26304;DHT22;57113;48.680;8.890;2022-10-15T01:02:48;17.00;99.90
26304;DHT22;57113;48.680;8.890;2022-10-15T01:05:14;17.00;99.90
26304;DHT22;57113;48.680;8.890;2022-10-15T01:07:40;17.00;99.90
26304;DHT22;57113;48.680;8.890;2022-10-15T01:10:06;17.00;99.90
26304;DHT22;57113;48.680;8.890;2022-10-15T01:15:22;16.90;99.90
26304;DHT22;57113;48.680;8.890;2022-10-15T01:30:56;17.00;99.90
26304;DHT22;57113;48.680;8.890;2022-10-15T01:33:24;17.00;99.90
26304;DHT22;57113;48.680;8.890;2022-10-15T01:36:35;17.00;99.90
26304;DHT22;57113;48.680;8.890;2022-10-15T01:38:59;17.00;99.90
26304;DHT22;57113;48.680;8.890;2022-10-15T01:41:45;16.90;99.90
26304;DHT22;57113;48.680;8.890;2022-10-15T01:44:17;16.90;99.90
26304;DHT22;57113;48.680;8.890;2022-10-15T01:47:07;17.00;99.90
26304;DHT22;57113;48.680;8.890;2022-10-15T01:49:36;17.00;99.90
26304;DHT22;57113;48.680;8.890;2022-10-15T01:52:05;16.90;99.90
26304;DHT22;57113;48.680;8.890;2022-10-15T01:54:32;16.90;99.90
26304;DHT22;57113;48.680;8.890;2022-10-15T01:56:58;17.00;99.90
26304;DHT22;57113;48.680;8.890;2022-10-15T01:59:25;16.90;99.90
26304;DHT22;57113;48.680;8.890;2022-10-15T02:01:51;16.90;99.90
26304;DHT22;57113;48.680;8.890;2022-10-15T02:04:27;16.90;99.90
26304;DHT22;57113;48.680;8.890;2022-10-15T02:06:58;16.90;99.90
26304;DHT22;57113;48.680;8.890;2022-10-15T02:09:31;16.90;99.90
26304;DHT22;57113;48.680;8.890;2022-10-15T02:12:18;16.90;99.90
26304;DHT22;57113;48.680;8.890;2022-10-15T02:17:21;16.90;99.90
26304;DHT22;57113;48.680;8.890;2022-10-15T02:19:54;16.90;99.90
26304;DHT22;57113;48.680;8.890;2022-10-15T02:22:21;16.90;99.90
26304;DHT22;57113;48.680;8.890;2022-10-15T02:27:17;16.90;99.90
26304;DHT22;57113;48.680;8.890;2022-10-15T02:29:44;16.90;99.90
26304;DHT22;57113;48.680;8.890;2022-10-15T02:32:10;16.90;99.90
26304;DHT22;57113;48.680;8.890;2022-10-15T02:34:37;16.90;99.90
26304;DHT22;57113;48.680;8.890;2022-10-15T02:37:04;16.90;99.90
26304;DHT22;57113;48.680;8.890;2022-10-15T02:39:30;16.90;99.90
26304;DHT22;57113;48.680;8.890;2022-10-15T02:41:56;16.90;99.90
26304;DHT22;57113;48.680;8.890;2022-10-15T02:44:21;16.90;99.90
26304;DHT22;57113;48.680;8.890;2022-10-15T02:46:47;16.90;99.90
26304;DHT22;57113;48.680;8.890;2022-10-15T02:49:12;16.90;99.90
26304;DHT22;57113;48.680;8.890;2022-10-15T02:51:38;16.90;99.90
26304;DHT22;57113;48.680;8.890;2022-10-15T02:54:04;16.90;99.90
26304;DHT22;57113;48.680;8.890;2022-10-15T02:56:30;16.90;99.90
26304;DHT22;57113;48.680;8.890;2022-10-15T02:58:55;16.90;99.90
26304;DHT22;57113;48.680;8.890;2022-10-15T03:01:21;16.90;99.90
26304;DHT22;57113;48.680;8.890;2022-10-15T03:03:46;16.90;99.90
26304;DHT22;57113;48.680;8.890;2022-10-15T03:06:12;16.90;99.90
26304;DHT22;57113;48.680;8.890;2022-10-15T03:08:38;16.90;99.90
26304;DHT22;57113;48.680;8.890;2022-10-15T03:11:03;16.90;99.90
26304;DHT22;57113;48.680;8.890;2022-10-15T03:13:29;16.90;99.90
26304;DHT22;57113;48.680;8.890;2022-10-15T03:15:54;16.90;99.90
26304;DHT22;57113;48.680;8.890;2022-10-15T03:18:20;16.90;99.90
26304;DHT22;57113;48.680;8.890;2022-10-15T03:20:52;16.90;99.90
26304;DHT22;57113;48.680;8.890;2022-10-15T03:23:18;16.90;99.90
26304;DHT22;57113;48.680;8.890;2022-10-15T03:25:43;16.90;99.90
26304;DHT22;57113;48.680;8.890;2022-10-15T03:28:08;16.90;99.90
26304;DHT22;57113;48.680;8.890;2022-10-15T03:30:34;16.90;99.90
26304;DHT22;57113;48.680;8.890;2022-10-15T03:32:59;16.90;99.90
26304;DHT22;57113;48.680;8.890;2022-10-15T03:35:25;16.90;99.90
26304;DHT22;57113;48.680;8.890;2022-10-15T03:37:50;16.90;99.90
26304;DHT22;57113;48.680;8.890;2022-10-15T03:40:16;16.90;99.90
26304;DHT22;57113;48.680;8.890;2022-10-15T03:42:42;16.90;99.90
26304;DHT22;57113;48.680;8.890;2022-10-15T03:45:08;16.90;99.90
26304;DHT22;57113;48.680;8.890;2022-10-15T03:47:34;16.90;99.90
26304;DHT22;57113;48.680;8.890;2022-10-15T03:49:59;16.90;99.90
26304;DHT22;57113;48.680;8.890;2022-10-15T03:52:25;16.90;99.90
26304;DHT22;57113;48.680;8.890;2022-10-15T03:54:50;16.90;99.90
26304;DHT22;57113;48.680;8.890;2022-10-15T03:57:16;16.90;99.90
26304;DHT22;57113;48.680;8.890;2022-10-15T03:59:41;16.90;99.90
26304;DHT22;57113;48.680;8.890;2022-10-15T04:02:07;16.90;99.90
26304;DHT22;57113;48.680;8.890;2022-10-15T04:04:33;16.90;99.90
26304;DHT22;57113;48.680;8.890;2022-10-15T04:06:58;16.90;99.90
26304;DHT22;57113;48.680;8.890;2022-10-15T04:09:24;16.90;99.90
26304;DHT22;57113;48.680;8.890;2022-10-15T04:11:49;16.90;99.90
26304;DHT22;57113;48.680;8.890;2022-10-15T04:14:15;16.90;99.90
26304;DHT22;57113;48.680;8.890;2022-10-15T04:16:40;16.90;99.90
26304;DHT22;57113;48.680;8.890;2022-10-15T04:19:06;16.90;99.90
26304;DHT22;57113;48.680;8.890;2022-10-15T04:21:31;16.90;99.90
26304;DHT22;57113;48.680;8.890;2022-10-15T04:23:57;16.90;99.90
26304;DHT22;57113;48.680;8.890;2022-10-15T04:26:22;16.90;99.90
26304;DHT22;57113;48.680;8.890;2022-10-15T04:28:48;16.90;99.90
26304;DHT22;57113;48.680;8.890;2022-10-15T04:31:13;16.90;99.90
26304;DHT22;57113;48.680;8.890;2022-10-15T04:33:39;16.90;99.90
26304;DHT22;57113;48.680;8.890;2022-10-15T04:36:06;16.90;99.90
26304;DHT22;57113;48.680;8.890;2022-10-15T04:38:32;16.80;99.90
26304;DHT22;57113;48.680;8.890;2022-10-15T04:40:58;16.80;99.90
26304;DHT22;57113;48.680;8.890;2022-10-15T04:43:25;16.90;99.90
26304;DHT22;57113;48.680;8.890;2022-10-15T04:45:50;16.90;99.90
26304;DHT22;57113;48.680;8.890;2022-10-15T04:48:16;16.90;99.90
26304;DHT22;57113;48.680;8.890;2022-10-15T04:50:41;16.90;99.90
26304;DHT22;57113;48.680;8.890;2022-10-15T04:53:09;16.80;99.90
26304;DHT22;57113;48.680;8.890;2022-10-15T04:55:34;16.90;99.90
26304;DHT22;57113;48.680;8.890;2022-10-15T04:58:00;16.80;99.90
26304;DHT22;57113;48.680;8.890;2022-10-15T05:00:25;16.80;99.90
26304;DHT22;57113;48.680;8.890;2022-10-15T05:02:51;16.80;99.90
26304;DHT22;57113;48.680;8.890;2022-10-15T05:05:16;16.90;99.90
26304;DHT22;57113;48.680;8.890;2022-10-15T05:07:42;16.80;99.90
26304;DHT22;57113;48.680;8.890;2022-10-15T05:10:07;16.80;99.90
26304;DHT22;57113;48.680;8.890;2022-10-15T05:12:33;16.90;99.90
26304;DHT22;57113;48.680;8.890;2022-10-15T05:14:58;16.80;99.90
26304;DHT22;57113;48.680;8.890;2022-10-15T05:17:24;16.80;99.90
26304;DHT22;57113;48.680;8.890;2022-10-15T05:19:49;16.80;99.90
26304;DHT22;57113;48.680;8.890;2022-10-15T05:22:15;16.90;99.90
26304;DHT22;57113;48.680;8.890;2022-10-15T05:24:40;16.80;99.90
26304;DHT22;57113;48.680;8.890;2022-10-15T05:27:06;16.90;99.90
26304;DHT22;57113;48.680;8.890;2022-10-15T05:29:31;16.90;99.90
26304;DHT22;57113;48.680;8.890;2022-10-15T05:31:57;16.90;99.90
26304;DHT22;57113;48.680;8.890;2022-10-15T05:34:23;16.90;99.90
26304;DHT22;57113;48.680;8.890;2022-10-15T05:36:51;16.90;99.90
26304;DHT22;57113;48.680;8.890;2022-10-15T05:39:16;16.80;99.90
26304;DHT22;57113;48.680;8.890;2022-10-15T05:41:42;16.80;99.90
26304;DHT22;57113;48.680;8.890;2022-10-15T05:44:07;16.80;99.90
26304;DHT22;57113;48.680;8.890;2022-10-15T05:46:33;16.80;99.90
26304;DHT22;57113;48.680;8.890;2022-10-15T05:48:58;16.80;99.90
26304;DHT22;57113;48.680;8.890;2022-10-15T05:51:25;16.80;99.90
26304;DHT22;57113;48.680;8.890;2022-10-15T05:53:51;16.80;99.90
26304;DHT22;57113;48.680;8.890;2022-10-15T05:56:17;16.80;99.90
26304;DHT22;57113;48.680;8.890;2022-10-15T05:58:42;16.80;99.90
26304;DHT22;57113;48.680;8.890;2022-10-15T06:01:09;16.80;99.90
26304;DHT22;57113;48.680;8.890;2022-10-15T06:03:35;16.80;99.90
26304;DHT22;57113;48.680;8.890;2022-10-15T06:06:00;16.80;99.90
26304;DHT22;57113;48.680;8.890;2022-10-15T06:08:27;16.80;99.90
26304;DHT22;57113;48.680;8.890;2022-10-15T06:10:52;16.80;99.90
26304;DHT22;57113;48.680;8.890;2022-10-15T06:13:18;16.80;99.90
26304;DHT22;57113;48.680;8.890;2022-10-15T06:15:44;16.80;99.90
26304;DHT22;57113;48.680;8.890;2022-10-15T06:18:11;16.80;99.90
26304;DHT22;57113;48.680;8.890;2022-10-15T06:20:36;16.80;99.90
26304;DHT22;57113;48.680;8.890;2022-10-15T06:23:03;16.80;99.90
26304;DHT22;57113;48.680;8.890;2022-10-15T06:25:29;16.80;99.90
26304;DHT22;57113;48.680;8.890;2022-10-15T06:27:54;16.80;99.90
26304;DHT22;57113;48.680;8.890;2022-10-15T06:30:20;16.80;99.90
26304;DHT22;57113;48.680;8.890;2022-10-15T06:32:49;16.80;99.90
26304;DHT22;57113;48.680;8.890;2022-10-15T06:35:15;16.80;99.90
26304;DHT22;57113;48.680;8.890;2022-10-15T06:37:41;16.80;99.90
26304;DHT22;57113;48.680;8.890;2022-10-15T06:40:07;16.80;99.90
26304;DHT22;57113;48.680;8.890;2022-10-15T06:42:33;16.80;99.90
26304;DHT22;57113;48.680;8.890;2022-10-15T06:44:58;16.80;99.90
26304;DHT22;57113;48.680;8.890;2022-10-15T06:47:24;16.80;99.90
26304;DHT22;57113;48.680;8.890;2022-10-15T06:49:49;16.80;99.90
26304;DHT22;57113;48.680;8.890;2022-10-15T06:52:15;16.80;99.90
26304;DHT22;57113;48.680;8.890;2022-10-15T06:54:40;16.70;99.90
26304;DHT22;57113;48.680;8.890;2022-10-15T06:57:06;16.80;99.90
26304;DHT22;57113;48.680;8.890;2022-10-15T06:59:31;16.80;99.90
26304;DHT22;57113;48.680;8.890;2022-10-15T07:01:57;16.80;99.90
26304;DHT22;57113;48.680;8.890;2022-10-15T07:04:23;16.80;99.90
26304;DHT22;57113;48.680;8.890;2022-10-15T07:06:48;16.80;99.90
26304;DHT22;57113;48.680;8.890;2022-10-15T07:09:14;16.70;99.90
26304;DHT22;57113;48.680;8.890;2022-10-15T07:11:39;16.80;99.90
26304;DHT22;57113;48.680;8.890;2022-10-15T07:14:05;16.80;99.90
26304;DHT22;57113;48.680;8.890;2022-10-15T07:16:31;16.80;99.90
26304;DHT22;57113;48.680;8.890;2022-10-15T07:18:56;16.70;99.90
26304;DHT22;57113;48.680;8.890;2022-10-15T07:21:22;16.80;99.90
26304;DHT22;57113;48.680;8.890;2022-10-15T07:23:47;16.80;99.90
26304;DHT22;57113;48.680;8.890;2022-10-15T07:26:13;16.80;99.90
26304;DHT22;57113;48.680;8.890;2022-10-15T07:28:39;16.70;99.90
26304;DHT22;57113;48.680;8.890;2022-10-15T07:31:05;16.80;99.90
26304;DHT22;57113;48.680;8.890;2022-10-15T07:33:31;16.70;99.90
26304;DHT22;57113;48.680;8.890;2022-10-15T07:36:04;16.70;99.90
26304;DHT22;57113;48.680;8.890;2022-10-15T07:38:30;16.70;99.90
26304;DHT22;57113;48.680;8.890;2022-10-15T07:40:56;16.70;99.90
26304;DHT22;57113;48.680;8.890;2022-10-15T07:43:22;16.80;99.90
26304;DHT22;57113;48.680;8.890;2022-10-15T07:45:48;16.70;99.90
26304;DHT22;57113;48.680;8.890;2022-10-15T07:48:14;16.80;99.90
26304;DHT22;57113;48.680;8.890;2022-10-15T07:50:40;16.70;99.90
26304;DHT22;57113;48.680;8.890;2022-10-15T07:53:05;16.80;99.90
26304;DHT22;57113;48.680;8.890;2022-10-15T07:55:31;16.70;99.90
26304;DHT22;57113;48.680;8.890;2022-10-15T07:57:56;16.80;99.90
26304;DHT22;57113;48.680;8.890;2022-10-15T08:00:22;16.80;99.90
26304;DHT22;57113;48.680;8.890;2022-10-15T08:02:48;16.80;99.90
26304;DHT22;57113;48.680;8.890;2022-10-15T08:05:13;16.80;99.90
26304;DHT22;57113;48.680;8.890;2022-10-15T08:07:39;16.80;99.90
26304;DHT22;57113;48.680;8.890;2022-10-15T08:10:07;16.80;99.90
26304;DHT22;57113;48.680;8.890;2022-10-15T08:12:32;16.80;99.90
26304;DHT22;57113;48.680;8.890;2022-10-15T08:14:58;16.70;99.90
26304;DHT22;57113;48.680;8.890;2022-10-15T08:17:23;16.70;99.90
26304;DHT22;57113;48.680;8.890;2022-10-15T08:19:49;16.60;99.90
26304;DHT22;57113;48.680;8.890;2022-10-15T08:22:14;16.60;99.90
26304;DHT22;57113;48.680;8.890;2022-10-15T08:24:40;16.60;99.90
26304;DHT22;57113;48.680;8.890;2022-10-15T08:27:05;16.70;99.90
26304;DHT22;57113;48.680;8.890;2022-10-15T08:29:31;16.70;99.90
26304;DHT22;57113;48.680;8.890;2022-10-15T08:31:56;16.70;99.90
26304;DHT22;57113;48.680;8.890;2022-10-15T08:34:22;16.70;99.90
26304;DHT22;57113;48.680;8.890;2022-10-15T08:36:47;16.70;99.90
26304;DHT22;57113;48.680;8.890;2022-10-15T08:39:13;16.70;99.90
26304;DHT22;57113;48.680;8.890;2022-10-15T08:41:39;16.70;99.90
26304;DHT22;57113;48.680;8.890;2022-10-15T08:44:11;16.80;99.90
26304;DHT22;57113;48.680;8.890;2022-10-15T08:46:41;16.70;99.90
26304;DHT22;57113;48.680;8.890;2022-10-15T08:52:16;16.70;99.90
26304;DHT22;57113;48.680;8.890;2022-10-15T08:54:43;16.80;99.90
26304;DHT22;57113;48.680;8.890;2022-10-15T09:00:40;16.80;99.90
26304;DHT22;57113;48.680;8.890;2022-10-15T09:02:59;16.70;99.90
26304;DHT22;57113;48.680;8.890;2022-10-15T09:05:27;16.80;99.90
26304;DHT22;57113;48.680;8.890;2022-10-15T09:10:35;16.80;99.90
26304;DHT22;57113;48.680;8.890;2022-10-15T09:13:13;16.80;99.90
26304;DHT22;57113;48.680;8.890;2022-10-15T09:15:42;16.80;99.90
26304;DHT22;57113;48.680;8.890;2022-10-15T09:18:10;16.70;99.90
26304;DHT22;57113;48.680;8.890;2022-10-15T09:20:41;16.70;99.90
26304;DHT22;57113;48.680;8.890;2022-10-15T09:23:18;16.80;99.90
26304;DHT22;57113;48.680;8.890;2022-10-15T09:25:44;16.80;99.90
26304;DHT22;57113;48.680;8.890;2022-10-15T09:28:13;16.70;99.90
26304;DHT22;57113;48.680;8.890;2022-10-15T09:33:15;16.80;99.90
26304;DHT22;57113;48.680;8.890;2022-10-15T09:41:23;16.90;99.90
26304;DHT22;57113;48.680;8.890;2022-10-15T09:43:33;16.90;99.90
26304;DHT22;57113;48.680;8.890;2022-10-15T09:46:03;17.00;99.90
26304;DHT22;57113;48.680;8.890;2022-10-15T09:48:35;17.00;99.90
26304;DHT22;57113;48.680;8.890;2022-10-15T09:51:06;17.10;99.90
26304;DHT22;57113;48.680;8.890;2022-10-15T09:53:39;17.10;99.90
26304;DHT22;57113;48.680;8.890;2022-10-15T09:58:36;17.20;99.90
26304;DHT22;57113;48.680;8.890;2022-10-15T10:01:03;17.30;99.90
26304;DHT22;57113;48.680;8.890;2022-10-15T10:03:30;17.30;99.90
26304;DHT22;57113;48.680;8.890;2022-10-15T10:06:06;17.40;99.90
26304;DHT22;57113;48.680;8.890;2022-10-15T10:08:34;17.40;99.90
26304;DHT22;57113;48.680;8.890;2022-10-15T10:11:03;17.50;99.90
26304;DHT22;57113;48.680;8.890;2022-10-15T10:13:39;17.50;99.90
26304;DHT22;57113;48.680;8.890;2022-10-15T10:16:10;17.60;99.90
26304;DHT22;57113;48.680;8.890;2022-10-15T10:18:36;17.60;99.90
26304;DHT22;57113;48.680;8.890;2022-10-15T10:21:21;17.70;99.90
26304;DHT22;57113;48.680;8.890;2022-10-15T10:23:47;17.70;99.90
26304;DHT22;57113;48.680;8.890;2022-10-15T10:26:13;17.70;99.90
26304;DHT22;57113;48.680;8.890;2022-10-15T10:29:00;17.80;99.90
26304;DHT22;57113;48.680;8.890;2022-10-15T10:31:26;17.80;99.90
26304;DHT22;57113;48.680;8.890;2022-10-15T10:33:52;17.80;99.90
26304;DHT22;57113;48.680;8.890;2022-10-15T10:36:28;17.90;99.90
26304;DHT22;57113;48.680;8.890;2022-10-15T10:38:57;17.90;99.90
26304;DHT22;57113;48.680;8.890;2022-10-15T10:41:23;17.90;99.90
26304;DHT22;57113;48.680;8.890;2022-10-15T10:44:16;17.90;99.90
26304;DHT22;57113;48.680;8.890;2022-10-15T10:46:42;17.90;99.90
26304;DHT22;57113;48.680;8.890;2022-10-15T10:49:07;17.90;99.90
26304;DHT22;57113;48.680;8.890;2022-10-15T10:51:33;17.80;99.90
26304;DHT22;57113;48.680;8.890;2022-10-15T10:54:12;17.80;99.90
26304;DHT22;57113;48.680;8.890;2022-10-15T10:56:42;17.70;99.90
26304;DHT22;57113;48.680;8.890;2022-10-15T11:01:33;17.70;99.90
26304;DHT22;57113;48.680;8.890;2022-10-15T11:03:58;17.70;99.90
26304;DHT22;57113;48.680;8.890;2022-10-15T11:06:30;17.70;99.90
26304;DHT22;57113;48.680;8.890;2022-10-15T11:14:19;17.60;99.90
26304;DHT22;57113;48.680;8.890;2022-10-15T11:16:52;17.60;99.90
26304;DHT22;57113;48.680;8.890;2022-10-15T11:21:53;17.60;99.90
26304;DHT22;57113;48.680;8.890;2022-10-15T11:24:28;17.60;99.90
26304;DHT22;57113;48.680;8.890;2022-10-15T11:27:11;17.60;99.90
26304;DHT22;57113;48.680;8.890;2022-10-15T11:29:41;17.60;99.90
26304;DHT22;57113;48.680;8.890;2022-10-15T11:37:21;17.50;99.90
26304;DHT22;57113;48.680;8.890;2022-10-15T11:40:05;17.50;99.90
26304;DHT22;57113;48.680;8.890;2022-10-15T11:42:56;17.50;99.90
26304;DHT22;57113;48.680;8.890;2022-10-15T11:55:44;17.50;99.90
26304;DHT22;57113;48.680;8.890;2022-10-15T11:58:18;17.50;99.90
26304;DHT22;57113;48.680;8.890;2022-10-15T12:00:48;17.50;99.90
26304;DHT22;57113;48.680;8.890;2022-10-15T12:03:20;17.50;99.90
26304;DHT22;57113;48.680;8.890;2022-10-15T12:05:51;17.50;99.90
26304;DHT22;57113;48.680;8.890;2022-10-15T12:08:17;17.50;99.90
26304;DHT22;57113;48.680;8.890;2022-10-15T12:18:35;17.50;99.90
26304;DHT22;57113;48.680;8.890;2022-10-15T12:21:03;17.50;99.90
26304;DHT22;57113;48.680;8.890;2022-10-15T12:28:47;17.50;99.90
26304;DHT22;57113;48.680;8.890;2022-10-15T12:31:14;17.50;99.90
26304;DHT22;57113;48.680;8.890;2022-10-15T12:33:46;17.50;99.90
26304;DHT22;57113;48.680;8.890;2022-10-15T12:36:23;17.40;99.90
26304;DHT22;57113;48.680;8.890;2022-10-15T12:39:05;17.50;99.90
26304;DHT22;57113;48.680;8.890;2022-10-15T12:44:07;17.40;99.90
26304;DHT22;57113;48.680;8.890;2022-10-15T12:46:39;17.50;99.90
26304;DHT22;57113;48.680;8.890;2022-10-15T12:51:49;17.50;99.90
26304;DHT22;57113;48.680;8.890;2022-10-15T12:56:59;17.40;99.90
26304;DHT22;57113;48.680;8.890;2022-10-15T13:04:53;17.40;99.90
26304;DHT22;57113;48.680;8.890;2022-10-15T13:07:19;17.40;99.90
26304;DHT22;57113;48.680;8.890;2022-10-15T13:09:44;17.40;99.90
26304;DHT22;57113;48.680;8.890;2022-10-15T13:12:15;17.40;99.90
26304;DHT22;57113;48.680;8.890;2022-10-15T13:14:47;17.40;99.90
26304;DHT22;57113;48.680;8.890;2022-10-15T13:17:15;17.40;99.90
26304;DHT22;57113;48.680;8.890;2022-10-15T13:20:02;17.40;99.90
26304;DHT22;57113;48.680;8.890;2022-10-15T13:22:32;17.40;99.90
26304;DHT22;57113;48.680;8.890;2022-10-15T13:24:58;17.40;99.90
26304;DHT22;57113;48.680;8.890;2022-10-15T13:27:31;17.40;99.90
26304;DHT22;57113;48.680;8.890;2022-10-15T13:32:26;17.40;99.90
26304;DHT22;57113;48.680;8.890;2022-10-15T13:34:52;17.40;99.90
26304;DHT22;57113;48.680;8.890;2022-10-15T13:37:22;17.40;99.90
26304;DHT22;57113;48.680;8.890;2022-10-15T13:39:49;17.30;99.90
26304;DHT22;57113;48.680;8.890;2022-10-15T13:42:16;17.30;99.90
26304;DHT22;57113;48.680;8.890;2022-10-15T13:44:56;17.30;99.90
26304;DHT22;57113;48.680;8.890;2022-10-15T13:47:31;17.40;99.90
26304;DHT22;57113;48.680;8.890;2022-10-15T13:52:43;17.30;99.90
26304;DHT22;57113;48.680;8.890;2022-10-15T13:55:20;17.40;99.90
26304;DHT22;57113;48.680;8.890;2022-10-15T13:57:47;17.30;99.90
26304;DHT22;57113;48.680;8.890;2022-10-15T14:00:23;17.30;99.90
26304;DHT22;57113;48.680;8.890;2022-10-15T14:03:11;17.30;99.90
26304;DHT22;57113;48.680;8.890;2022-10-15T14:05:37;17.30;99.90
26304;DHT22;57113;48.680;8.890;2022-10-15T14:08:02;17.30;99.90
26304;DHT22;57113;48.680;8.890;2022-10-15T14:10:28;17.30;99.90
26304;DHT22;57113;48.680;8.890;2022-10-15T14:12:53;17.30;99.90
26304;DHT22;57113;48.680;8.890;2022-10-15T14:21:16;17.30;99.90
26304;DHT22;57113;48.680;8.890;2022-10-15T14:23:43;17.30;99.90
26304;DHT22;57113;48.680;8.890;2022-10-15T14:26:09;17.40;99.90
26304;DHT22;57113;48.680;8.890;2022-10-15T14:28:36;17.40;99.90
26304;DHT22;57113;48.680;8.890;2022-10-15T14:31:02;17.40;99.90
26304;DHT22;57113;48.680;8.890;2022-10-15T14:38:40;17.40;99.90
26304;DHT22;57113;48.680;8.890;2022-10-15T14:43:58;17.40;99.90
26304;DHT22;57113;48.680;8.890;2022-10-15T14:46:23;17.40;99.90
26304;DHT22;57113;48.680;8.890;2022-10-15T14:48:49;17.40;99.90
26304;DHT22;57113;48.680;8.890;2022-10-15T14:51:23;17.40;99.90
26304;DHT22;57113;48.680;8.890;2022-10-15T14:53:49;17.40;99.90
26304;DHT22;57113;48.680;8.890;2022-10-15T14:56:16;17.40;99.90
26304;DHT22;57113;48.680;8.890;2022-10-15T14:58:50;17.40;99.90
26304;DHT22;57113;48.680;8.890;2022-10-15T15:01:17;17.40;99.90
26304;DHT22;57113;48.680;8.890;2022-10-15T15:03:44;17.40;99.90
26304;DHT22;57113;48.680;8.890;2022-10-15T15:06:10;17.40;99.90
26304;DHT22;57113;48.680;8.890;2022-10-15T15:08:36;17.40;99.90
26304;DHT22;57113;48.680;8.890;2022-10-15T15:11:03;17.50;99.90
26304;DHT22;57113;48.680;8.890;2022-10-15T15:13:30;17.50;99.90
26304;DHT22;57113;48.680;8.890;2022-10-15T15:15:56;17.50;99.90
26304;DHT22;57113;48.680;8.890;2022-10-15T15:18:22;17.50;99.90
26304;DHT22;57113;48.680;8.890;2022-10-15T15:20:48;17.60;99.90
26304;DHT22;57113;48.680;8.890;2022-10-15T15:23:16;17.60;99.90
26304;DHT22;57113;48.680;8.890;2022-10-15T15:25:42;17.60;99.90
26304;DHT22;57113;48.680;8.890;2022-10-15T15:28:12;17.60;99.90
26304;DHT22;57113;48.680;8.890;2022-10-15T15:30:39;17.60;99.90
26304;DHT22;57113;48.680;8.890;2022-10-15T15:33:04;17.60;99.90
26304;DHT22;57113;48.680;8.890;2022-10-15T15:38:18;17.70;99.90
26304;DHT22;57113;48.680;8.890;2022-10-15T15:40:44;17.60;99.90
26304;DHT22;57113;48.680;8.890;2022-10-15T15:43:14;17.60;99.90
26304;DHT22;57113;48.680;8.890;2022-10-15T15:45:40;17.60;99.90
26304;DHT22;57113;48.680;8.890;2022-10-15T15:48:06;17.60;99.90
26304;DHT22;57113;48.680;8.890;2022-10-15T15:50:31;17.60;99.90
26304;DHT22;57113;48.680;8.890;2022-10-15T15:52:57;17.60;99.90
26304;DHT22;57113;48.680;8.890;2022-10-15T15:55:23;17.60;99.90
26304;DHT22;57113;48.680;8.890;2022-10-15T15:57:48;17.50;99.90
26304;DHT22;57113;48.680;8.890;2022-10-15T16:00:14;17.50;99.90
26304;DHT22;57113;48.680;8.890;2022-10-15T16:02:40;17.50;99.90
26304;DHT22;57113;48.680;8.890;2022-10-15T16:05:06;17.50;99.90
26304;DHT22;57113;48.680;8.890;2022-10-15T16:07:32;17.50;99.90
26304;DHT22;57113;48.680;8.890;2022-10-15T16:09:58;17.50;99.90
26304;DHT22;57113;48.680;8.890;2022-10-15T16:12:23;17.50;99.90
26304;DHT22;57113;48.680;8.890;2022-10-15T16:14:49;17.50;99.90
26304;DHT22;57113;48.680;8.890;2022-10-15T16:17:16;17.50;99.90
26304;DHT22;57113;48.680;8.890;2022-10-15T16:19:42;17.50;99.90
26304;DHT22;57113;48.680;8.890;2022-10-15T16:22:07;17.50;99.90
26304;DHT22;57113;48.680;8.890;2022-10-15T16:24:33;17.50;99.90
26304;DHT22;57113;48.680;8.890;2022-10-15T16:26:58;17.50;99.90
26304;DHT22;57113;48.680;8.890;2022-10-15T16:29:24;17.50;99.90
26304;DHT22;57113;48.680;8.890;2022-10-15T16:31:49;17.50;99.90
26304;DHT22;57113;48.680;8.890;2022-10-15T16:34:15;17.50;99.90
26304;DHT22;57113;48.680;8.890;2022-10-15T16:36:40;17.50;99.90
26304;DHT22;57113;48.680;8.890;2022-10-15T16:39:06;17.50;99.90
26304;DHT22;57113;48.680;8.890;2022-10-15T16:41:32;17.50;99.90
26304;DHT22;57113;48.680;8.890;2022-10-15T16:43:57;17.50;99.90
26304;DHT22;57113;48.680;8.890;2022-10-15T16:46:23;17.50;99.90
26304;DHT22;57113;48.680;8.890;2022-10-15T16:48:52;17.50;99.90
26304;DHT22;57113;48.680;8.890;2022-10-15T16:51:18;17.40;99.90
26304;DHT22;57113;48.680;8.890;2022-10-15T16:53:45;17.40;99.90
26304;DHT22;57113;48.680;8.890;2022-10-15T16:56:18;17.30;99.90
26304;DHT22;57113;48.680;8.890;2022-10-15T16:58:44;17.30;99.90
26304;DHT22;57113;48.680;8.890;2022-10-15T17:01:10;17.30;99.90
26304;DHT22;57113;48.680;8.890;2022-10-15T17:03:36;17.40;99.90
26304;DHT22;57113;48.680;8.890;2022-10-15T17:06:03;17.40;99.90
26304;DHT22;57113;48.680;8.890;2022-10-15T17:08:33;17.40;99.90
26304;DHT22;57113;48.680;8.890;2022-10-15T17:10:59;17.40;99.90
26304;DHT22;57113;48.680;8.890;2022-10-15T17:13:24;17.40;99.90
26304;DHT22;57113;48.680;8.890;2022-10-15T17:15:50;17.40;99.90
26304;DHT22;57113;48.680;8.890;2022-10-15T17:18:15;17.40;99.90
26304;DHT22;57113;48.680;8.890;2022-10-15T17:20:42;17.40;99.90
26304;DHT22;57113;48.680;8.890;2022-10-15T17:23:08;17.50;99.90
26304;DHT22;57113;48.680;8.890;2022-10-15T17:25:34;17.50;99.90
26304;DHT22;57113;48.680;8.890;2022-10-15T17:27:59;17.50;99.90